Time;durP1;ratioP1;P1;durP2;ratioP2;P2;SDS_P1;SDS_P2;PMS_P1;PMS_P2;Temp;Humidity;BMP_temperature;BMP_pressure;BME280_temperature;BME280_humidity;BME280_pressure;Samples;Min_cycle;Max_cycle;Signal;HPM_P1;HPM_P2
2020/12/11 04:43:10;;;;;;;15.32;7.90;;;-2.10;99.90;;;;;;5478360;23;88296;-84
2020/12/11 04:45:40;;;;;;;13.73;7.72;;;-2.00;99.90;;;;;;4864788;28;87138;-84
2020/12/11 04:48:11;;;;;;;19.00;8.93;;;-2.10;99.90;;;;;;4858198;29;87782;-84
2020/12/11 04:50:37;;;;;;;15.55;8.35;;;-2.10;99.90;;;;;;4853503;29;87331;-84
2020/12/11 04:53:04;;;;;;;14.77;8.23;;;-2.10;99.90;;;;;;4878222;28;87182;-84
2020/12/11 04:55:35;;;;;;;11.85;6.85;;;-2.10;99.90;;;;;;4872945;29;86394;-84
2020/12/11 04:58:04;;;;;;;12.32;6.65;;;-2.20;99.90;;;;;;4874806;29;87233;-82
2020/12/11 05:00:31;;;;;;;15.00;8.10;;;-2.20;99.90;;;;;;4872181;29;87233;-84
2020/12/11 05:02:57;;;;;;;15.23;7.82;;;-2.30;99.90;;;;;;4858216;28;88015;-84
2020/12/11 05:05:23;;;;;;;14.43;8.10;;;-2.40;99.90;;;;;;4868006;29;86919;-85
2020/12/11 05:07:49;;;;;;;14.55;7.32;;;-2.50;99.90;;;;;;4863938;28;87139;-85
2020/12/11 05:10:15;;;;;;;15.18;7.97;;;-2.50;99.90;;;;;;4871298;29;86921;-84
2020/12/11 05:12:40;;;;;;;15.18;7.85;;;-2.50;99.90;;;;;;4872435;29;87497;-84
2020/12/11 05:15:08;;;;;;;13.57;7.32;;;-2.50;99.90;;;;;;4871179;29;86989;-86
2020/12/11 05:17:42;;;;;;;17.25;8.35;;;-2.50;99.90;;;;;;4877878;28;86871;-84
2020/12/11 05:20:10;;;;;;;15.35;8.25;;;-2.50;99.90;;;;;;4874202;28;87978;-85
2020/12/11 05:22:40;;;;;;;13.80;7.70;;;-2.40;99.90;;;;;;4870581;29;87226;-85
2020/12/11 05:25:13;;;;;;;12.02;6.40;;;-2.40;99.90;;;;;;4871774;29;87082;-85
2020/12/11 05:27:46;;;;;;;14.63;7.10;;;-2.40;99.90;;;;;;4860690;29;87909;-84
2020/12/11 05:30:17;;;;;;;14.70;7.22;;;-2.40;99.90;;;;;;4861761;29;87271;-83
2020/12/11 05:32:57;;;;;;;15.55;7.68;;;-2.40;99.90;;;;;;4871689;29;86879;-85
2020/12/11 05:35:25;;;;;;;13.68;8.02;;;-2.30;99.90;;;;;;4871333;29;87121;-85
2020/12/11 05:37:53;;;;;;;14.52;8.68;;;-2.30;99.90;;;;;;4868493;29;87371;-85
2020/12/11 05:40:28;;;;;;;14.88;7.88;;;-2.30;99.90;;;;;;4867595;29;87425;-84
2020/12/11 05:43:18;;;;;;;13.38;6.60;;;-2.20;99.90;;;;;;4875263;28;86981;-85
2020/12/11 05:45:58;;;;;;;10.60;5.93;;;-2.20;99.90;;;;;;4890896;28;86077;-84
2020/12/11 05:48:24;;;;;;;13.52;5.85;;;-2.10;99.90;;;;;;4888926;28;88206;-84
2020/12/11 05:50:51;;;;;;;11.55;6.22;;;-2.10;99.90;;;;;;4873711;28;88839;-84
2020/12/11 05:53:16;;;;;;;14.00;6.65;;;-2.10;99.90;;;;;;4894733;28;88010;-85
2020/12/11 05:55:42;;;;;;;12.77;7.07;;;-2.00;99.90;;;;;;4888013;28;86881;-85
2020/12/11 05:58:11;;;;;;;11.50;6.22;;;-2.00;99.90;;;;;;4890432;28;86998;-85
2020/12/11 06:00:41;;;;;;;10.77;5.97;;;-2.00;99.90;;;;;;4893714;28;86818;-84
2020/12/11 06:03:08;;;;;;;11.93;6.40;;;-2.00;99.90;;;;;;4872464;28;86874;-84
2020/12/11 06:05:39;;;;;;;11.98;5.90;;;-1.90;99.90;;;;;;4893488;28;87127;-85
2020/12/11 06:08:09;;;;;;;12.95;6.15;;;-2.00;99.90;;;;;;4881501;28;87855;-85
2020/12/11 06:10:37;;;;;;;14.48;7.78;;;-1.90;99.90;;;;;;4894318;28;86484;-86
2020/12/11 06:13:04;;;;;;;18.80;9.00;;;-1.90;99.90;;;;;;4883099;28;86249;-86
2020/12/11 06:15:41;;;;;;;20.38;9.25;;;-1.90;99.90;;;;;;4894299;28;86870;-86
2020/12/11 06:18:13;;;;;;;21.45;10.95;;;-2.20;99.90;;;;;;4891151;28;88393;-82
2020/12/11 06:20:39;;;;;;;19.65;9.80;;;-1.90;99.90;;;;;;4890721;28;88862;-83
2020/12/11 06:23:21;;;;;;;20.35;9.63;;;-1.90;99.90;;;;;;4882220;28;86838;-83
2020/12/11 06:26:00;;;;;;;20.45;10.32;;;-1.90;99.90;;;;;;4892963;28;86913;-83
2020/12/11 06:28:38;;;;;;;21.52;11.43;;;-1.70;99.90;;;;;;4890616;28;86951;-83
2020/12/11 06:31:22;;;;;;;18.70;9.73;;;-1.90;99.90;;;;;;4869301;28;87335;-84
2020/12/11 06:33:53;;;;;;;21.30;10.05;;;-1.90;99.90;;;;;;4884534;28;86388;-83
2020/12/11 06:36:19;;;;;;;16.73;8.60;;;-2.00;99.90;;;;;;4883888;28;86209;-81
2020/12/11 06:38:47;;;;;;;16.35;8.57;;;-2.10;99.90;;;;;;4891062;28;87916;-83
2020/12/11 06:41:34;;;;;;;15.57;8.93;;;-2.10;99.90;;;;;;4875619;28;89502;-85
2020/12/11 06:44:09;;;;;;;17.05;8.50;;;-2.20;99.90;;;;;;4875230;28;87608;-83
2020/12/11 06:46:35;;;;;;;19.63;9.63;;;-2.20;99.90;;;;;;4890155;28;86970;-83
2020/12/11 06:49:14;;;;;;;19.77;10.05;;;-2.20;99.90;;;;;;4891222;28;86953;-83
2020/12/11 06:51:45;;;;;;;15.95;8.57;;;-2.30;99.90;;;;;;4890460;28;87975;-82
2020/12/11 06:54:20;;;;;;;19.70;10.52;;;-2.30;99.90;;;;;;4888043;28;86946;-83
2020/12/11 06:56:48;;;;;;;14.73;8.35;;;-2.40;99.90;;;;;;4874426;28;86893;-82
2020/12/11 06:59:25;;;;;;;19.52;9.52;;;-2.40;99.90;;;;;;4889356;28;87268;-84
2020/12/11 11:45:43;;;;;;;10.03;7.93;;;5.60;77.80;;;;;;4861461;29;86675;-82
2020/12/11 11:48:12;;;;;;;13.98;8.95;;;5.80;76.50;;;;;;4860553;29;88659;-83
2020/12/11 11:53:15;;;;;;;12.55;8.52;;;5.70;76.10;;;;;;4869164;29;87013;-83
2020/12/11 11:55:42;;;;;;;11.13;8.05;;;5.70;76.80;;;;;;4866642;29;86984;-83
2020/12/11 11:58:08;;;;;;;13.00;8.38;;;5.70;77.10;;;;;;4858627;29;88247;-83
2020/12/11 12:00:34;;;;;;;14.93;8.80;;;5.70;77.20;;;;;;4866678;29;88211;-82
2020/12/11 12:03:00;;;;;;;15.45;9.52;;;5.80;76.70;;;;;;4861226;29;86992;-83
2020/12/11 12:05:25;;;;;;;13.75;8.68;;;5.60;76.10;;;;;;4863815;29;88060;-83
2020/12/11 12:07:51;;;;;;;13.57;8.90;;;5.90;75.80;;;;;;4862008;29;87734;-82
2020/12/11 12:10:17;;;;;;;13.68;8.60;;;5.90;76.40;;;;;;4867508;29;87470;-82
2020/12/11 12:12:43;;;;;;;13.90;8.48;;;6.00;75.90;;;;;;4870053;29;86805;-83
2020/12/11 12:15:13;;;;;;;15.25;9.40;;;6.00;76.00;;;;;;4864504;29;85583;-83
2020/12/11 12:17:45;;;;;;;13.73;9.32;;;6.10;76.00;;;;;;4865111;29;87631;-82
2020/12/11 12:20:18;;;;;;;13.82;8.82;;;6.10;76.00;;;;;;4865900;29;87244;-83
2020/12/11 12:28:28;;;;;;;15.55;10.32;;;5.90;76.00;;;;;;4863229;29;86867;-81
2020/12/11 12:30:54;;;;;;;16.45;9.70;;;6.00;76.40;;;;;;4871437;29;87158;-85
2020/12/11 12:38:51;;;;;;;16.60;9.60;;;5.80;77.00;;;;;;4869420;28;87953;-83
2020/12/11 12:44:01;;;;;;;14.73;9.57;;;5.80;77.30;;;;;;4876751;28;86891;-85
2020/12/11 12:46:29;;;;;;;13.90;8.98;;;5.80;77.10;;;;;;4885505;28;86895;-83
2020/12/11 12:48:54;;;;;;;16.90;9.32;;;5.70;77.20;;;;;;4885602;28;88587;-83
2020/12/11 12:51:20;;;;;;;12.68;8.52;;;5.60;77.70;;;;;;4887661;28;87239;-84
2020/12/11 12:53:46;;;;;;;16.23;8.85;;;5.60;77.50;;;;;;4882364;28;86309;-82
2020/12/11 12:59:05;;;;;;;17.13;10.55;;;5.50;77.80;;;;;;4879945;28;86995;-83
2020/12/11 13:01:46;;;;;;;19.63;11.13;;;5.40;78.30;;;;;;4889679;28;87446;-84
2020/12/11 13:04:17;;;;;;;22.33;12.05;;;5.40;78.90;;;;;;4887399;28;87678;-84
2020/12/11 13:06:44;;;;;;;26.02;14.65;;;5.30;78.90;;;;;;4886875;28;85498;-82
2020/12/11 13:09:11;;;;;;;20.85;13.13;;;5.20;79.30;;;;;;4888349;28;87298;-83
2020/12/11 13:11:37;;;;;;;21.92;11.80;;;5.20;79.70;;;;;;4867940;28;87700;-83
2020/12/11 13:14:03;;;;;;;21.00;12.00;;;5.10;80.00;;;;;;4886530;28;88174;-82
2020/12/11 13:16:29;;;;;;;20.95;12.65;;;4.50;81.40;;;;;;4889214;28;87086;-82
2020/12/11 13:18:54;;;;;;;20.05;13.45;;;4.60;82.70;;;;;;4890502;28;87138;-82
2020/12/11 13:21:26;;;;;;;20.38;11.85;;;4.70;82.80;;;;;;4890034;28;87465;-83
2020/12/11 13:26:49;;;;;;;20.15;11.70;;;4.70;82.50;;;;;;4889315;28;86185;-83
2020/12/11 13:29:15;;;;;;;20.05;13.00;;;4.70;83.90;;;;;;4871004;28;88353;-82
2020/12/11 13:31:41;;;;;;;18.55;12.18;;;4.50;84.50;;;;;;4889327;28;87958;-82
2020/12/11 13:34:08;;;;;;;19.90;11.80;;;4.50;83.60;;;;;;4884443;28;87107;-83
2020/12/11 13:36:34;;;;;;;24.23;11.82;;;4.60;84.00;;;;;;4876169;28;87087;-83
2020/12/11 13:39:00;;;;;;;24.45;12.68;;;4.60;84.00;;;;;;4887294;28;88269;-82
2020/12/11 13:41:32;;;;;;;33.05;16.70;;;4.40;83.60;;;;;;4888183;28;88066;-82
2020/12/11 13:43:58;;;;;;;24.00;13.52;;;4.60;84.00;;;;;;4871025;28;87067;-83
2020/12/11 13:46:24;;;;;;;22.85;12.82;;;4.60;84.70;;;;;;4889690;28;86716;-83
2020/12/11 13:48:50;;;;;;;19.65;12.13;;;4.50;85.30;;;;;;4888087;28;88775;-83
2020/12/11 13:51:17;;;;;;;23.42;14.20;;;4.60;86.00;;;;;;4888867;28;86703;-83
2020/12/11 13:53:43;;;;;;;24.05;13.98;;;3.90;85.70;;;;;;4888127;28;86882;-83
2020/12/11 13:56:13;;;;;;;20.52;12.55;;;4.40;86.20;;;;;;4884752;28;86362;-83
2020/12/11 13:58:39;;;;;;;21.45;12.43;;;4.40;86.70;;;;;;4860009;28;89457;-83
2020/12/11 14:01:04;;;;;;;20.92;13.32;;;4.30;86.80;;;;;;4880397;28;87529;-83
2020/12/11 14:03:30;;;;;;;23.52;13.52;;;4.30;87.30;;;;;;4877483;28;87855;-82
2020/12/11 14:05:56;;;;;;;25.27;15.18;;;4.30;87.70;;;;;;4878637;28;86944;-82
2020/12/11 14:08:21;;;;;;;23.75;13.32;;;4.30;88.10;;;;;;4889071;28;87469;-82
2020/12/11 14:10:47;;;;;;;25.98;15.65;;;4.40;88.30;;;;;;4886457;28;87436;-82
2020/12/11 14:13:13;;;;;;;28.30;15.73;;;4.40;88.60;;;;;;4885290;28;87063;-82
2020/12/11 14:15:38;;;;;;;24.65;13.75;;;4.50;88.00;;;;;;4875268;28;86960;-83
2020/12/11 14:23:38;;;;;;;24.63;13.32;;;4.60;88.10;;;;;;4848673;28;87555;-82
2020/12/11 14:26:04;;;;;;;21.92;12.55;;;4.60;87.70;;;;;;4888599;28;87217;-81
2020/12/11 14:28:30;;;;;;;25.50;14.80;;;4.40;87.80;;;;;;4889227;28;88870;-82
2020/12/11 14:30:56;;;;;;;24.20;12.95;;;4.60;88.00;;;;;;4886838;28;87873;-80
2020/12/11 14:33:22;;;;;;;24.55;13.95;;;4.60;88.10;;;;;;4883843;28;88330;-80
2020/12/11 14:35:47;;;;;;;30.23;15.55;;;4.60;88.50;;;;;;4885141;28;86533;-82
2020/12/11 14:39:01;;;;;;;35.33;18.70;;;4.50;87.90;;;;;;4888663;28;87146;-82
2020/12/11 14:40:59;;;;;;;22.40;14.00;;;4.60;89.30;;;;;;4876476;28;87353;-83
2020/12/11 14:43:31;;;;;;;21.23;11.93;;;4.40;89.60;;;;;;4891175;28;87532;-81
2020/12/11 14:46:00;;;;;;;23.83;13.38;;;4.10;90.30;;;;;;4886829;28;85970;-82
2020/12/11 14:48:29;;;;;;;25.85;13.73;;;4.20;90.30;;;;;;4887207;28;87363;-82
2020/12/11 14:50:55;;;;;;;24.67;13.63;;;4.70;91.00;;;;;;4889436;28;87102;-81
2020/12/11 14:53:21;;;;;;;24.55;14.10;;;4.10;90.80;;;;;;4890965;28;87806;-82
2020/12/11 14:55:47;;;;;;;21.65;12.23;;;4.10;91.60;;;;;;4885977;28;87017;-81
2020/12/11 14:58:14;;;;;;;20.42;11.70;;;4.10;91.20;;;;;;4889771;28;87200;-82
2020/12/11 15:00:46;;;;;;;20.58;12.30;;;4.00;91.70;;;;;;4883789;28;87135;-81
2020/12/11 15:03:11;;;;;;;21.38;10.80;;;3.80;91.80;;;;;;4888352;28;87569;-81
2020/12/11 15:05:37;;;;;;;20.95;12.63;;;3.90;91.80;;;;;;4884815;28;86240;-81
2020/12/11 15:08:03;;;;;;;20.92;12.77;;;3.80;91.90;;;;;;4891281;28;86834;-81
2020/12/11 15:10:28;;;;;;;24.50;13.88;;;3.80;92.00;;;;;;4878928;28;88103;-81
2020/12/11 15:12:54;;;;;;;25.70;14.32;;;4.10;91.70;;;;;;4877151;28;87606;-81
2020/12/11 15:15:20;;;;;;;21.13;13.50;;;3.80;91.70;;;;;;4889220;28;88782;-80
2020/12/11 15:17:46;;;;;;;24.10;13.93;;;3.90;92.00;;;;;;4890998;28;88613;-80
2020/12/11 15:20:11;;;;;;;21.45;11.93;;;3.80;92.30;;;;;;4872106;28;88218;-81
2020/12/11 15:22:37;;;;;;;19.35;12.48;;;3.80;93.30;;;;;;4883808;28;86864;-81
2020/12/11 15:25:03;;;;;;;24.52;13.70;;;3.60;93.50;;;;;;4874554;28;86907;-81
2020/12/11 15:27:29;;;;;;;21.45;12.63;;;3.70;93.70;;;;;;4888611;28;87226;-80
2020/12/11 15:29:55;;;;;;;23.10;14.63;;;;;;;;;;4879329;28;89210;-80
2020/12/11 15:32:20;;;;;;;23.30;12.02;;;3.30;94.40;;;;;;4887842;28;86799;-80
2020/12/11 15:34:47;;;;;;;19.85;12.30;;;3.30;95.40;;;;;;4886272;28;86136;-80
2020/12/11 15:37:12;;;;;;;18.95;10.88;;;3.20;95.90;;;;;;4887449;28;86812;-80
2020/12/11 15:39:38;;;;;;;19.33;10.95;;;3.20;96.00;;;;;;4867748;28;89284;-80
2020/12/11 15:42:04;;;;;;;19.27;11.63;;;3.10;96.60;;;;;;4889132;28;87975;-80
2020/12/11 15:44:30;;;;;;;19.42;13.00;;;3.10;97.60;;;;;;4888524;28;87070;-80
2020/12/11 15:46:55;;;;;;;23.65;13.30;;;3.00;97.20;;;;;;4889529;28;87005;-80
2020/12/11 15:49:21;;;;;;;20.25;11.07;;;3.10;97.40;;;;;;4890167;28;87229;-82
2020/12/11 15:51:47;;;;;;;23.17;12.45;;;3.20;96.40;;;;;;4888173;28;86999;-80
2020/12/11 15:54:14;;;;;;;21.15;11.52;;;;;;;;;;4887270;28;87118;-81
2020/12/11 15:56:40;;;;;;;19.02;11.00;;;3.20;96.50;;;;;;4880257;28;87036;-80
2020/12/11 15:59:05;;;;;;;20.58;12.50;;;3.20;97.50;;;;;;4887022;28;87457;-79
2020/12/11 16:01:32;;;;;;;21.40;10.93;;;3.30;97.40;;;;;;4871309;28;87092;-80
2020/12/11 16:03:58;;;;;;;20.95;12.38;;;3.50;97.10;;;;;;4886783;28;87049;-79
2020/12/11 16:06:24;;;;;;;21.73;12.02;;;3.40;97.10;;;;;;4880236;28;89358;-79
2020/12/11 16:08:50;;;;;;;20.52;13.48;;;3.30;96.20;;;;;;4882012;28;88269;-80
2020/12/11 16:11:22;;;;;;;21.35;12.55;;;3.10;96.60;;;;;;4883672;28;87344;-80
2020/12/11 16:13:47;;;;;;;23.00;12.35;;;3.20;96.70;;;;;;4888195;28;87094;-80
2020/12/11 16:16:13;;;;;;;21.80;12.30;;;3.20;97.00;;;;;;4884235;28;87247;-81
2020/12/11 16:18:39;;;;;;;23.45;13.52;;;3.00;97.10;;;;;;4888282;28;87826;-81
2020/12/11 16:21:04;;;;;;;21.27;12.60;;;3.00;97.30;;;;;;4883125;28;87445;-79
2020/12/11 16:23:30;;;;;;;22.63;13.98;;;2.60;99.00;;;;;;4885607;28;86508;-80
2020/12/11 16:25:56;;;;;;;20.38;12.50;;;2.90;99.10;;;;;;4886669;28;87512;-79
2020/12/11 16:28:21;;;;;;;24.00;13.70;;;2.60;99.20;;;;;;4870084;28;88496;-80
2020/12/11 16:30:47;;;;;;;24.17;14.25;;;2.80;99.80;;;;;;4888158;28;88017;-79
2020/12/11 16:33:13;;;;;;;24.02;14.30;;;2.90;99.40;;;;;;4887728;28;86727;-79
2020/12/11 16:35:38;;;;;;;26.90;14.82;;;2.80;99.00;;;;;;4883153;28;87627;-79
2020/12/11 16:38:07;;;;;;;30.65;16.13;;;2.70;99.20;;;;;;4878026;28;87357;-80
2020/12/11 16:40:32;;;;;;;32.50;16.63;;;2.70;99.90;;;;;;4890774;28;87071;-80
2020/12/11 16:43:17;;;;;;;36.22;18.13;;;2.60;99.90;;;;;;4888088;28;86439;-80
2020/12/11 16:45:43;;;;;;;35.90;17.50;;;2.30;99.90;;;;;;4889698;28;87274;-81
2020/12/11 16:48:12;;;;;;;26.50;14.48;;;2.20;99.90;;;;;;4890241;28;87295;-80
2020/12/11 16:50:38;;;;;;;25.90;13.65;;;2.40;99.90;;;;;;4895471;28;87031;-80
2020/12/11 16:53:03;;;;;;;29.95;15.70;;;2.30;99.90;;;;;;4900332;28;86748;-80
2020/12/11 16:55:29;;;;;;;28.17;14.27;;;2.30;99.90;;;;;;4890963;28;88164;-81
2020/12/11 16:57:55;;;;;;;28.52;16.00;;;2.40;99.90;;;;;;4887284;28;87254;-81
2020/12/11 17:00:26;;;;;;;25.90;15.35;;;2.40;99.90;;;;;;4890565;28;86940;-82
2020/12/11 17:08:15;;;;;;;28.55;14.93;;;2.20;99.90;;;;;;4869347;28;86833;-80
2020/12/11 17:10:40;;;;;;;26.80;13.45;;;2.30;99.90;;;;;;4881062;28;87069;-81
2020/12/11 17:13:06;;;;;;;35.47;18.98;;;2.30;99.90;;;;;;4881141;28;86440;-81
2020/12/11 17:15:31;;;;;;;30.48;16.33;;;2.20;99.90;;;;;;4873582;28;87368;-80
2020/12/11 17:17:57;;;;;;;32.03;15.25;;;2.30;99.90;;;;;;4880301;28;86986;-80
2020/12/11 17:20:23;;;;;;;26.70;14.55;;;2.20;99.90;;;;;;4875752;28;87842;-80
2020/12/11 17:22:48;;;;;;;33.20;17.13;;;1.90;99.90;;;;;;4866964;28;87299;-82
2020/12/11 17:25:14;;;;;;;35.78;17.15;;;2.20;99.90;;;;;;4871839;28;88237;-80
2020/12/11 17:27:40;;;;;;;28.35;14.88;;;2.30;99.90;;;;;;4883741;28;87521;-82
2020/12/11 17:33:07;;;;;;;39.33;19.02;;;2.50;99.90;;;;;;4884422;28;86756;-81
2020/12/11 17:35:33;;;;;;;31.88;17.17;;;2.50;99.90;;;;;;4885952;28;87059;-84
2020/12/11 17:37:59;;;;;;;24.42;14.88;;;2.60;99.90;;;;;;4887855;28;86754;-81
2020/12/11 17:40:24;;;;;;;32.03;14.88;;;2.60;99.90;;;;;;4869769;28;86801;-82
2020/12/11 17:42:50;;;;;;;27.15;14.60;;;2.60;99.90;;;;;;4886659;28;87165;-81
2020/12/11 17:45:16;;;;;;;29.95;15.55;;;2.60;99.90;;;;;;4888109;28;88494;-81
2020/12/11 17:47:41;;;;;;;29.48;15.63;;;2.60;99.90;;;;;;4882132;28;87778;-80
2020/12/11 17:50:07;;;;;;;29.98;17.33;;;2.70;99.90;;;;;;4886251;28;87025;-81
2020/12/11 17:52:33;;;;;;;30.70;15.82;;;2.70;99.90;;;;;;4886959;28;87072;-81
2020/12/11 17:54:58;;;;;;;24.35;13.18;;;2.70;99.90;;;;;;4884777;28;87213;-83
2020/12/11 17:57:24;;;;;;;168.65;118.20;;;2.50;99.90;;;;;;4882366;28;87000;-81
2020/12/11 17:59:50;;;;;;;28.83;15.95;;;2.70;99.90;;;;;;4888629;28;86884;-82
2020/12/11 18:02:17;;;;;;;36.03;17.27;;;;;;;;;;4869457;28;86286;-82
2020/12/11 18:04:42;;;;;;;31.20;16.30;;;2.30;99.90;;;;;;4880550;28;86731;-81
2020/12/11 18:07:09;;;;;;;30.30;16.23;;;2.30;99.90;;;;;;4876842;28;87399;-82
2020/12/11 18:09:34;;;;;;;28.33;14.38;;;2.30;99.90;;;;;;4889900;28;87710;-81
2020/12/11 18:12:00;;;;;;;28.25;15.65;;;2.30;99.90;;;;;;4878819;28;86550;-80
2020/12/11 18:14:27;;;;;;;30.30;16.58;;;2.20;99.90;;;;;;4887062;28;86842;-82
2020/12/11 18:16:53;;;;;;;32.10;16.35;;;2.10;99.90;;;;;;4885501;28;87144;-82
2020/12/11 18:19:23;;;;;;;31.90;16.05;;;2.40;99.90;;;;;;4882730;28;86829;-82
2020/12/11 18:21:51;;;;;;;32.40;16.38;;;2.10;99.90;;;;;;4886161;28;87135;-81
2020/12/11 18:24:21;;;;;;;28.45;14.05;;;2.10;99.90;;;;;;4880465;28;87428;-81
2020/12/11 18:26:47;;;;;;;35.13;17.80;;;2.10;99.90;;;;;;4872279;28;90960;-81
2020/12/11 18:29:13;;;;;;;33.25;16.63;;;2.10;99.90;;;;;;4885711;28;87008;-81
2020/12/11 18:31:39;;;;;;;29.92;15.85;;;2.10;99.90;;;;;;4882607;28;87528;-81
2020/12/11 18:34:05;;;;;;;31.75;17.52;;;2.10;99.90;;;;;;4885506;28;87835;-80
2020/12/11 18:36:32;;;;;;;32.92;18.58;;;2.30;99.90;;;;;;4889423;28;87180;-81
2020/12/11 18:38:57;;;;;;;30.40;15.93;;;2.00;99.90;;;;;;4887302;28;87042;-81
2020/12/11 18:41:23;;;;;;;29.25;14.85;;;2.30;99.90;;;;;;4886917;28;86790;-82
2020/12/11 18:43:49;;;;;;;31.80;16.13;;;2.10;99.90;;;;;;4883918;28;88075;-82
2020/12/11 18:46:14;;;;;;;29.70;14.45;;;2.00;99.90;;;;;;4886288;28;87126;-82
2020/12/11 18:48:40;;;;;;;28.67;14.98;;;2.10;99.90;;;;;;4889316;28;86878;-81
2020/12/11 18:51:06;;;;;;;18.27;10.38;;;2.00;99.90;;;;;;4870339;28;87021;-82
2020/12/11 18:53:34;;;;;;;31.60;16.45;;;2.00;99.90;;;;;;4885987;28;86912;-81
2020/12/11 18:56:12;;;;;;;31.20;15.25;;;1.90;99.90;;;;;;4885857;28;87222;-82
2020/12/11 18:58:38;;;;;;;29.10;14.85;;;1.90;99.90;;;;;;4890139;28;87891;-82
2020/12/11 19:01:05;;;;;;;34.92;17.98;;;1.80;99.90;;;;;;4888118;28;86922;-82
2020/12/11 19:03:31;;;;;;;46.20;22.27;;;2.10;99.90;;;;;;4889386;28;86792;-82
2020/12/11 19:06:00;;;;;;;55.40;24.63;;;1.90;99.90;;;;;;4889794;28;87450;-81
2020/12/11 19:08:27;;;;;;;39.42;18.15;;;1.90;99.90;;;;;;4892659;28;86946;-81
2020/12/11 19:10:53;;;;;;;31.58;15.23;;;2.10;99.90;;;;;;4891367;28;86762;-81
2020/12/11 19:13:19;;;;;;;28.52;16.17;;;2.10;99.90;;;;;;4874075;28;90550;-82
2020/12/11 19:15:45;;;;;;;31.60;17.83;;;2.20;99.90;;;;;;4891682;28;86237;-82
2020/12/11 19:18:11;;;;;;;33.15;17.48;;;2.60;99.90;;;;;;4894682;28;86867;-82
2020/12/11 19:20:36;;;;;;;38.72;20.05;;;2.50;99.90;;;;;;4890841;28;87021;-82
2020/12/11 19:23:03;;;;;;;30.58;18.08;;;;;;;;;;4882374;28;87813;-81
2020/12/11 19:25:29;;;;;;;34.83;17.48;;;2.70;99.90;;;;;;4868395;28;90935;-81
2020/12/11 19:27:55;;;;;;;33.92;17.02;;;2.60;99.90;;;;;;4892093;28;86931;-82
2020/12/11 19:30:22;;;;;;;31.75;16.95;;;2.60;99.90;;;;;;4889169;28;87071;-81
2020/12/11 19:32:47;;;;;;;32.00;16.23;;;2.70;99.90;;;;;;4892478;28;86656;-81
2020/12/11 19:35:13;;;;;;;33.72;16.10;;;2.70;99.90;;;;;;4890902;28;87529;-81
2020/12/11 19:37:39;;;;;;;28.75;16.27;;;2.70;99.90;;;;;;4867402;28;87429;-82
2020/12/11 19:40:06;;;;;;;25.83;14.07;;;2.70;99.90;;;;;;4885235;28;86251;-82
2020/12/11 19:42:32;;;;;;;29.52;17.38;;;3.10;99.90;;;;;;4885377;28;86719;-82
2020/12/11 19:44:58;;;;;;;31.75;16.80;;;2.80;99.90;;;;;;4894084;28;87397;-81
2020/12/11 19:47:24;;;;;;;35.45;18.42;;;3.20;99.90;;;;;;4890284;28;87913;-82
2020/12/11 19:49:50;;;;;;;44.75;23.58;;;3.40;99.90;;;;;;4892421;28;87121;-81
2020/12/11 19:52:16;;;;;;;45.00;21.08;;;2.80;99.90;;;;;;4869221;28;91140;-81
2020/12/11 19:54:42;;;;;;;31.33;15.93;;;2.80;99.90;;;;;;4890930;28;87066;-81
2020/12/11 19:57:09;;;;;;;36.05;19.00;;;3.00;99.90;;;;;;4891950;28;87672;-81
2020/12/11 19:59:35;;;;;;;31.75;18.00;;;2.90;99.90;;;;;;4892305;28;86966;-82
2020/12/11 20:02:01;;;;;;;30.58;16.98;;;3.00;99.90;;;;;;4892445;28;86716;-81
2020/12/11 20:04:27;;;;;;;32.30;17.33;;;3.10;99.90;;;;;;4890119;28;86746;-82
2020/12/11 20:09:41;;;;;;;33.25;16.73;;;3.20;99.90;;;;;;4891863;28;86850;-82
2020/12/11 20:12:11;;;;;;;32.97;15.70;;;3.20;99.90;;;;;;4889527;28;88068;-82
2020/12/11 20:14:37;;;;;;;32.47;16.58;;;3.40;99.90;;;;;;4890499;28;87971;-82
2020/12/11 20:17:04;;;;;;;29.52;16.45;;;3.30;99.90;;;;;;4888112;28;86893;-82
2020/12/11 20:19:30;;;;;;;34.72;17.13;;;3.40;99.90;;;;;;4883071;28;86794;-82
2020/12/11 20:21:55;;;;;;;31.55;16.67;;;3.40;99.90;;;;;;4887211;28;87118;-81
2020/12/11 20:24:21;;;;;;;32.25;16.85;;;3.50;99.90;;;;;;4890249;28;87501;-83
2020/12/11 20:26:47;;;;;;;29.73;16.23;;;;;;;;;;4886702;28;86922;-82
2020/12/11 20:29:17;;;;;;;30.90;17.67;;;3.70;99.90;;;;;;4872953;28;87675;-81
2020/12/11 20:31:44;;;;;;;33.38;17.05;;;3.40;99.90;;;;;;4885452;28;87403;-83
2020/12/11 20:34:11;;;;;;;30.67;16.05;;;3.40;99.90;;;;;;4874861;28;86824;-83
2020/12/11 20:36:36;;;;;;;31.15;16.00;;;3.30;99.90;;;;;;4882985;28;88044;-83
2020/12/11 20:39:04;;;;;;;32.78;16.33;;;3.40;99.90;;;;;;4890700;28;87025;-82
2020/12/11 20:41:30;;;;;;;31.73;17.02;;;3.40;99.90;;;;;;4889530;28;87213;-83
2020/12/11 20:43:56;;;;;;;32.03;16.75;;;3.30;99.90;;;;;;4890170;28;87734;-83
2020/12/11 20:46:29;;;;;;;33.20;18.23;;;3.30;99.90;;;;;;4890654;28;87175;-83
2020/12/11 20:48:54;;;;;;;29.42;17.10;;;3.30;99.90;;;;;;4901246;28;86823;-83
2020/12/11 20:51:25;;;;;;;30.42;16.55;;;3.40;99.90;;;;;;4890931;28;86801;-82
2020/12/11 20:53:50;;;;;;;31.38;15.98;;;3.40;99.90;;;;;;4881678;28;86939;-82
2020/12/11 20:56:16;;;;;;;29.83;15.52;;;3.50;99.90;;;;;;4889982;28;86851;-82
2020/12/11 20:58:42;;;;;;;29.20;16.63;;;3.60;99.90;;;;;;4890307;28;86982;-83
2020/12/11 21:01:07;;;;;;;30.33;15.38;;;3.60;99.90;;;;;;4890023;28;88224;-83
2020/12/11 21:03:33;;;;;;;31.48;16.48;;;3.70;99.90;;;;;;4886440;28;87661;-82
2020/12/11 21:05:59;;;;;;;34.63;20.15;;;3.70;99.90;;;;;;4886461;28;86965;-83
2020/12/11 21:08:29;;;;;;;29.17;15.50;;;3.80;99.90;;;;;;4867723;28;87098;-83
2020/12/11 21:10:54;;;;;;;28.67;15.85;;;4.10;99.90;;;;;;4885532;28;87666;-83
2020/12/11 21:13:20;;;;;;;28.17;15.27;;;;;;;;;;4889797;28;87068;-82
2020/12/11 21:15:46;;;;;;;29.98;17.42;;;3.70;99.90;;;;;;4888021;28;86888;-83
2020/12/11 21:18:12;;;;;;;30.20;16.25;;;3.80;99.90;;;;;;4890881;28;86101;-83
2020/12/11 21:20:37;;;;;;;28.02;15.40;;;3.80;99.90;;;;;;4890821;28;87059;-83
2020/12/11 21:23:03;;;;;;;28.20;16.58;;;3.80;99.90;;;;;;4890335;28;88213;-82
2020/12/11 21:25:29;;;;;;;32.70;15.90;;;3.90;99.90;;;;;;4884768;28;87975;-83
2020/12/11 21:27:54;;;;;;;31.65;17.30;;;3.90;99.90;;;;;;4889370;28;86991;-83
2020/12/11 21:30:22;;;;;;;30.55;15.85;;;3.90;99.90;;;;;;4890374;28;87679;-82
2020/12/11 21:33:03;;;;;;;32.17;17.58;;;3.80;99.90;;;;;;4890492;28;87027;-82
2020/12/11 21:35:29;;;;;;;33.70;16.65;;;3.80;99.90;;;;;;4889606;28;86898;-81
2020/12/11 21:37:55;;;;;;;29.85;16.77;;;3.80;99.90;;;;;;4889943;28;86922;-80
2020/12/11 21:40:26;;;;;;;29.10;16.02;;;3.80;99.90;;;;;;4888212;28;87203;-81
2020/12/11 21:43:00;;;;;;;31.30;16.75;;;3.80;99.90;;;;;;4889485;28;86380;-80
2020/12/11 21:45:26;;;;;;;29.23;16.52;;;4.00;99.90;;;;;;4892044;28;87004;-83
2020/12/11 21:47:53;;;;;;;31.63;17.30;;;3.60;99.90;;;;;;4891543;28;87081;-83
2020/12/11 21:50:23;;;;;;;31.33;17.38;;;3.70;99.90;;;;;;4881140;28;87907;-81
2020/12/11 21:52:52;;;;;;;31.42;17.17;;;3.60;99.90;;;;;;4889820;28;87952;-81
2020/12/11 21:55:20;;;;;;;29.98;16.98;;;3.70;99.90;;;;;;4875718;28;86902;-81
2020/12/11 21:57:45;;;;;;;32.95;17.25;;;4.00;99.90;;;;;;4886790;28;86859;-81
2020/12/11 22:00:11;;;;;;;28.65;16.50;;;3.80;99.90;;;;;;4890269;28;87879;-82
2020/12/11 22:02:37;;;;;;;26.98;15.82;;;3.70;99.90;;;;;;4885139;28;87111;-82
2020/12/11 22:05:04;;;;;;;27.20;15.20;;;3.50;99.90;;;;;;4889310;28;86866;-82
2020/12/11 22:07:29;;;;;;;30.52;15.40;;;3.50;99.90;;;;;;4874630;28;85872;-82
2020/12/11 22:09:55;;;;;;;30.80;16.80;;;;;;;;;;4870597;29;86660;-82
2020/12/11 22:12:21;;;;;;;30.73;16.95;;;3.60;99.90;;;;;;4881320;28;87305;-82
2020/12/11 22:14:47;;;;;;;28.05;16.02;;;3.60;99.90;;;;;;4889952;28;87848;-82
2020/12/11 22:17:13;;;;;;;30.52;17.50;;;3.70;99.90;;;;;;4890349;28;87032;-81
2020/12/11 22:19:41;;;;;;;27.95;16.00;;;3.60;99.90;;;;;;4889778;28;87825;-82
2020/12/11 22:22:07;;;;;;;30.52;16.20;;;3.80;99.90;;;;;;4891471;28;86557;-82
2020/12/11 22:25:16;;;;;;;28.15;15.85;;;3.80;99.90;;;;;;4888759;28;87031;-82
2020/12/11 22:27:21;;;;;;;27.83;16.13;;;3.70;99.90;;;;;;4853924;28;86426;-82
2020/12/11 22:29:47;;;;;;;30.50;16.38;;;3.50;99.90;;;;;;4870100;28;88365;-82
2020/12/11 22:32:13;;;;;;;29.25;16.15;;;3.50;99.90;;;;;;4890042;28;87312;-82
2020/12/11 22:34:38;;;;;;;32.35;17.25;;;3.50;99.90;;;;;;4890679;28;86874;-82
2020/12/11 22:37:06;;;;;;;33.08;16.05;;;3.50;99.90;;;;;;4890539;28;86163;-82
2020/12/11 22:39:32;;;;;;;29.17;16.48;;;3.50;99.90;;;;;;4892407;28;89598;-82
2020/12/11 22:42:01;;;;;;;29.00;15.65;;;3.50;99.90;;;;;;4882213;28;88289;-82
2020/12/11 22:44:27;;;;;;;32.40;16.90;;;3.80;99.90;;;;;;4903058;28;86971;-82